Time;durP1;ratioP1;P1;durP2;ratioP2;P2;SDS_P1;SDS_P2;PMS_P1;PMS_P2;Temp;Humidity;BMP_temperature;BMP_pressure;BME280_temperature;BME280_humidity;BME280_pressure;Samples;Min_cycle;Max_cycle;Signal;HPM_P1;HPM_P2
2023/12/04 00:01:35;;;;;;;23.63;17.35;;;-1.90;99.90;;;;;;5101013;28;20230;-87
2023/12/04 00:04:21;;;;;;;25.17;19.17;;;-2.00;99.90;;;;;;5115806;28;20279;-85
2023/12/04 00:07:07;;;;;;;23.27;17.95;;;-2.00;99.90;;;;;;5107436;28;20283;-85
2023/12/04 00:09:52;;;;;;;25.45;18.13;;;-2.00;99.90;;;;;;5112031;28;20631;-85
2023/12/04 00:12:38;;;;;;;28.75;19.02;;;-1.90;99.90;;;;;;5113693;28;20234;-86
2023/12/04 00:15:24;;;;;;;22.75;17.23;;;-1.90;99.90;;;;;;5108336;28;20201;-85
2023/12/04 00:18:11;;;;;;;21.02;16.77;;;-1.80;99.90;;;;;;5109080;28;20211;-85
2023/12/04 00:20:57;;;;;;;23.27;18.17;;;-1.90;99.90;;;;;;5113034;28;20601;-85
2023/12/04 00:23:43;;;;;;;22.10;16.90;;;-1.90;99.90;;;;;;5101438;28;20600;-84
2023/12/04 00:26:29;;;;;;;26.58;18.60;;;-1.90;99.90;;;;;;5105034;28;20284;-86
2023/12/04 00:29:14;;;;;;;22.27;17.50;;;-1.90;99.90;;;;;;5102278;28;20226;-85
2023/12/04 00:32:00;;;;;;;23.70;17.13;;;-1.90;99.90;;;;;;5110066;28;20313;-85
2023/12/04 00:34:47;;;;;;;25.50;18.50;;;-2.00;99.90;;;;;;5113697;28;20248;-86
2023/12/04 00:37:37;;;;;;;22.05;16.98;;;-1.90;99.90;;;;;;5110552;28;20720;-87
2023/12/04 00:40:23;;;;;;;23.70;17.75;;;-2.00;99.90;;;;;;5095202;28;20218;-86
2023/12/04 00:43:08;;;;;;;20.55;15.80;;;-2.00;99.90;;;;;;5108301;28;20208;-85
2023/12/04 00:45:54;;;;;;;21.42;16.60;;;-2.10;99.90;;;;;;5105093;28;20203;-84
2023/12/04 00:48:39;;;;;;;21.98;16.30;;;-2.20;99.90;;;;;;5106351;28;20222;-85
2023/12/04 00:51:27;;;;;;;23.20;16.98;;;-2.20;99.90;;;;;;5112287;28;20260;-85
2023/12/04 00:54:12;;;;;;;20.92;14.70;;;-2.20;99.90;;;;;;5112627;28;20203;-84
2023/12/04 00:56:58;;;;;;;25.33;17.77;;;-2.10;99.90;;;;;;5103865;28;20252;-85
2023/12/04 00:59:44;;;;;;;19.23;14.60;;;-2.10;99.90;;;;;;5106029;28;20296;-85
2023/12/04 01:02:30;;;;;;;22.98;17.60;;;-2.20;99.90;;;;;;5109803;28;20223;-85
2023/12/04 01:05:16;;;;;;;19.38;15.23;;;-2.20;99.90;;;;;;5096832;28;20196;-84
2023/12/04 01:08:03;;;;;;;20.90;15.90;;;-2.10;99.90;;;;;;5109310;28;20226;-84
2023/12/04 01:10:49;;;;;;;20.02;15.98;;;-2.10;99.90;;;;;;5105400;28;20233;-85
2023/12/04 01:13:35;;;;;;;20.17;15.73;;;-2.10;99.90;;;;;;5102127;28;20276;-84
2023/12/04 01:16:20;;;;;;;20.25;15.75;;;-2.10;99.90;;;;;;5098349;28;20195;-85
2023/12/04 01:19:06;;;;;;;23.00;16.52;;;-2.10;99.90;;;;;;5114733;28;20219;-84
2023/12/04 01:21:52;;;;;;;21.67;15.57;;;-2.10;99.90;;;;;;5117881;28;20252;-86
2023/12/04 01:24:39;;;;;;;20.77;14.40;;;-2.10;99.90;;;;;;5107618;28;20219;-85
2023/12/04 01:27:25;;;;;;;19.42;14.20;;;-2.10;99.90;;;;;;5107305;28;20200;-84
2023/12/04 01:30:13;;;;;;;20.60;15.32;;;-2.10;99.90;;;;;;5120008;28;20352;-85
2023/12/04 01:32:59;;;;;;;21.27;15.13;;;-2.10;99.90;;;;;;5115400;28;20232;-84
2023/12/04 01:35:45;;;;;;;20.27;15.45;;;-2.10;99.90;;;;;;5119365;28;20212;-85
2023/12/04 01:38:31;;;;;;;18.52;14.27;;;-2.20;99.90;;;;;;5114104;28;20241;-86
2023/12/04 01:41:18;;;;;;;18.52;13.95;;;-2.20;99.90;;;;;;5108724;28;20302;-86
2023/12/04 01:44:04;;;;;;;18.67;14.43;;;-2.20;99.90;;;;;;5115291;28;20254;-85
2023/12/04 01:46:50;;;;;;;17.90;14.60;;;-2.20;99.90;;;;;;5120601;28;20206;-86
2023/12/04 01:49:36;;;;;;;18.77;15.00;;;-2.20;99.90;;;;;;5114003;28;20292;-87
2023/12/04 01:52:22;;;;;;;18.00;13.68;;;-2.10;99.90;;;;;;5118985;28;20594;-84
2023/12/04 01:55:10;;;;;;;18.73;15.63;;;-2.00;99.90;;;;;;5120846;28;20203;-86
2023/12/04 01:57:59;;;;;;;20.25;14.98;;;-2.00;99.90;;;;;;5119209;28;20207;-85
2023/12/04 02:00:44;;;;;;;18.70;14.23;;;-2.00;99.90;;;;;;5103150;28;20674;-85
2023/12/04 02:03:30;;;;;;;19.25;13.32;;;-2.00;99.90;;;;;;5112786;28;20205;-86
2023/12/04 02:06:19;;;;;;;20.90;14.77;;;-2.00;99.90;;;;;;5125430;28;20199;-85
2023/12/04 02:09:06;;;;;;;18.30;13.73;;;-2.10;99.90;;;;;;5124359;28;20226;-85
2023/12/04 02:11:53;;;;;;;21.17;14.65;;;-2.10;99.90;;;;;;5123429;28;20230;-84
2023/12/04 02:14:40;;;;;;;20.63;15.25;;;-2.10;99.90;;;;;;5123538;28;20207;-86
2023/12/04 02:17:26;;;;;;;19.65;14.13;;;-2.10;99.90;;;;;;5109333;28;20215;-84
2023/12/04 02:20:14;;;;;;;17.20;13.63;;;-2.10;99.90;;;;;;5117274;28;20566;-84
2023/12/04 02:23:00;;;;;;;16.10;12.90;;;-2.10;99.90;;;;;;5112586;28;20605;-84
2023/12/04 02:25:47;;;;;;;19.85;15.25;;;-2.00;99.90;;;;;;5108654;28;20213;-86
2023/12/04 02:28:36;;;;;;;18.13;13.85;;;-2.00;99.90;;;;;;5114917;28;20584;-86
2023/12/04 02:31:24;;;;;;;18.55;14.32;;;-2.00;99.90;;;;;;5114877;28;20224;-86
2023/12/04 02:34:13;;;;;;;19.00;13.65;;;-1.90;99.90;;;;;;5117881;28;20221;-85
2023/12/04 02:37:00;;;;;;;19.88;13.75;;;-1.90;99.90;;;;;;5115437;28;20213;-86
2023/12/04 02:39:46;;;;;;;17.95;13.27;;;-1.90;99.90;;;;;;5111200;28;20199;-83
2023/12/04 02:42:33;;;;;;;16.80;13.63;;;-2.00;99.90;;;;;;5106293;28;20243;-87
2023/12/04 02:45:19;;;;;;;16.80;12.95;;;-2.00;99.90;;;;;;5098758;28;20202;-85
2023/12/04 02:48:05;;;;;;;16.67;13.20;;;-2.00;99.90;;;;;;5117474;28;20211;-86
2023/12/04 02:50:51;;;;;;;16.35;12.85;;;-2.00;99.90;;;;;;5117402;28;20292;-85
2023/12/04 02:53:37;;;;;;;14.80;11.90;;;-2.00;99.90;;;;;;5116211;28;20213;-84
2023/12/04 02:56:22;;;;;;;15.98;12.77;;;-2.00;99.90;;;;;;5107426;28;20577;-85
2023/12/04 02:59:10;;;;;;;17.63;12.20;;;-2.00;99.90;;;;;;5110765;28;20260;-86
2023/12/04 03:01:55;;;;;;;16.70;13.02;;;-2.00;99.90;;;;;;5118574;28;20221;-86
2023/12/04 03:04:41;;;;;;;16.13;12.65;;;-2.00;99.90;;;;;;5119377;28;20274;-86
2023/12/04 03:07:27;;;;;;;17.23;12.60;;;-2.00;99.90;;;;;;5119034;28;20202;-86
2023/12/04 03:10:12;;;;;;;16.88;13.25;;;-2.00;99.90;;;;;;5117932;28;20218;-85
2023/12/04 03:12:58;;;;;;;15.85;12.95;;;-2.00;99.90;;;;;;5108094;28;20232;-86
2023/12/04 03:15:45;;;;;;;15.77;12.45;;;-2.00;99.90;;;;;;5096749;28;20716;-86
2023/12/04 03:18:31;;;;;;;19.80;14.35;;;-2.00;99.90;;;;;;5102189;28;20326;-86
2023/12/04 03:21:16;;;;;;;16.98;13.18;;;-1.90;99.90;;;;;;5114069;28;20289;-86
2023/12/04 03:24:02;;;;;;;16.15;12.48;;;-1.80;99.90;;;;;;5111691;28;20285;-85
2023/12/04 03:26:48;;;;;;;17.73;13.23;;;-1.80;99.90;;;;;;5103078;28;20261;-85
2023/12/04 03:29:34;;;;;;;16.00;11.98;;;-1.80;99.90;;;;;;5100071;28;20218;-84
2023/12/04 03:32:21;;;;;;;16.13;13.02;;;-1.80;99.90;;;;;;5096507;28;20226;-85
2023/12/04 03:35:07;;;;;;;19.27;14.15;;;-1.70;99.90;;;;;;5114663;28;20742;-85
2023/12/04 03:37:53;;;;;;;17.08;12.88;;;-1.70;99.90;;;;;;5096211;28;20214;-85
2023/12/04 03:40:39;;;;;;;18.35;12.93;;;-1.70;99.90;;;;;;5103368;28;20269;-85
2023/12/04 03:43:24;;;;;;;16.98;13.88;;;-1.70;99.90;;;;;;5109270;28;20260;-84
2023/12/04 03:46:10;;;;;;;14.13;11.20;;;-1.70;99.90;;;;;;5116138;28;20214;-85
2023/12/04 03:48:57;;;;;;;13.98;10.13;;;-1.60;99.90;;;;;;5110980;28;20303;-84
2023/12/04 03:51:44;;;;;;;13.48;11.55;;;-1.60;99.90;;;;;;5113786;28;20612;-87
2023/12/04 03:54:30;;;;;;;15.43;11.18;;;-1.50;99.90;;;;;;5110771;28;20203;-84
2023/12/04 03:57:16;;;;;;;13.43;11.20;;;-1.50;99.90;;;;;;5103400;28;20202;-85
2023/12/04 04:00:01;;;;;;;14.57;11.20;;;-1.40;99.90;;;;;;5105186;28;20203;-86
2023/12/04 04:02:47;;;;;;;14.23;10.77;;;-1.40;99.90;;;;;;5097051;28;20353;-86
2023/12/04 04:05:35;;;;;;;14.07;10.25;;;-1.40;99.90;;;;;;5097471;28;20202;-84
2023/12/04 04:08:20;;;;;;;13.00;10.82;;;-1.40;99.90;;;;;;5089590;28;20677;-86
2023/12/04 04:11:07;;;;;;;15.25;11.02;;;-1.40;99.90;;;;;;5105702;28;20229;-85
2023/12/04 04:13:52;;;;;;;12.30;9.00;;;-1.40;99.90;;;;;;5104940;28;20209;-83
2023/12/04 04:16:38;;;;;;;14.80;10.38;;;-1.30;99.90;;;;;;5090537;28;20211;-85
2023/12/04 04:19:23;;;;;;;12.30;9.45;;;-1.30;99.90;;;;;;5109817;28;20202;-85
2023/12/04 04:22:10;;;;;;;12.98;10.80;;;-1.30;99.90;;;;;;5097832;28;20226;-86
2023/12/04 04:24:56;;;;;;;14.55;10.23;;;-1.30;99.90;;;;;;5104895;28;20289;-84
2023/12/04 04:27:42;;;;;;;12.45;10.45;;;-1.20;99.90;;;;;;5102259;28;20211;-86
2023/12/04 04:30:28;;;;;;;14.82;10.55;;;-1.30;99.90;;;;;;5094674;28;20222;-86
2023/12/04 04:33:13;;;;;;;12.52;10.45;;;-1.30;99.90;;;;;;5098551;28;20277;-85
2023/12/04 04:35:59;;;;;;;16.30;11.38;;;-1.20;99.90;;;;;;5098185;28;20218;-85
2023/12/04 04:38:46;;;;;;;10.18;8.98;;;-1.20;99.90;;;;;;5093500;28;20203;-84
2023/12/04 04:41:32;;;;;;;12.77;9.30;;;-1.20;99.90;;;;;;5102549;28;20342;-85
2023/12/04 04:44:18;;;;;;;12.23;10.13;;;-1.20;99.90;;;;;;5093579;28;20685;-85
2023/12/04 04:47:03;;;;;;;11.38;9.48;;;-1.30;99.90;;;;;;5096407;28;20199;-85
2023/12/04 04:49:49;;;;;;;11.93;9.57;;;-1.30;99.90;;;;;;5096859;28;20199;-84
2023/12/04 04:52:35;;;;;;;12.30;8.85;;;-1.20;99.90;;;;;;5092641;28;20239;-85
2023/12/04 04:55:22;;;;;;;11.05;9.35;;;-1.30;99.90;;;;;;5096779;28;20242;-85
2023/12/04 04:58:08;;;;;;;11.80;9.57;;;-1.20;99.90;;;;;;5105639;28;20698;-86
2023/12/04 05:00:53;;;;;;;12.10;9.10;;;-1.20;99.90;;;;;;5097782;28;20241;-85
2023/12/04 05:03:39;;;;;;;10.20;8.13;;;-1.20;99.90;;;;;;5092970;28;20206;-85
2023/12/04 05:06:25;;;;;;;11.50;9.13;;;-1.20;99.90;;;;;;5095163;28;20699;-85
2023/12/04 05:09:10;;;;;;;11.50;8.45;;;-1.10;99.90;;;;;;5099163;28;20210;-86
2023/12/04 05:11:57;;;;;;;12.32;9.05;;;-1.10;99.90;;;;;;5094554;28;20227;-86
2023/12/04 05:14:43;;;;;;;10.05;8.15;;;-1.10;99.90;;;;;;5098496;28;20680;-84
2023/12/04 05:17:29;;;;;;;10.70;8.57;;;-1.10;99.90;;;;;;5097646;28;20284;-86
2023/12/04 05:20:15;;;;;;;9.88;7.95;;;-1.10;99.90;;;;;;5092197;28;20283;-85
2023/12/04 05:23:00;;;;;;;11.23;8.55;;;-1.10;99.90;;;;;;5095294;28;20207;-85
2023/12/04 05:25:46;;;;;;;9.50;8.00;;;-1.10;99.90;;;;;;5095807;28;20308;-86
2023/12/04 05:28:34;;;;;;;9.35;7.70;;;-1.20;99.90;;;;;;5091413;28;20241;-85
2023/12/04 05:31:20;;;;;;;9.85;7.38;;;-1.10;99.90;;;;;;5102982;28;20230;-85
2023/12/04 05:34:05;;;;;;;11.13;8.73;;;-1.10;99.90;;;;;;5097101;28;20742;-84
2023/12/04 05:36:51;;;;;;;10.90;7.75;;;-1.10;99.90;;;;;;5096566;28;20261;-86
2023/12/04 05:39:37;;;;;;;9.90;7.80;;;-1.20;99.90;;;;;;5091090;28;20285;-85
2023/12/04 05:42:22;;;;;;;9.88;8.20;;;-1.20;99.90;;;;;;5100841;28;20675;-85
2023/12/04 05:45:10;;;;;;;10.77;7.70;;;-1.20;99.90;;;;;;5105413;28;20712;-86
2023/12/04 05:47:56;;;;;;;10.68;8.68;;;-1.20;99.90;;;;;;5094416;28;20254;-86
2023/12/04 05:50:42;;;;;;;10.30;7.35;;;-1.20;99.90;;;;;;5096261;28;20230;-86
2023/12/04 05:53:28;;;;;;;15.63;11.82;;;-1.20;99.90;;;;;;5102009;28;20200;-84
2023/12/04 05:56:14;;;;;;;13.70;8.85;;;-1.20;99.90;;;;;;5099828;28;20260;-86
2023/12/04 05:59:00;;;;;;;9.52;7.47;;;-1.30;99.90;;;;;;5109987;28;20581;-86
2023/12/04 06:01:47;;;;;;;10.15;7.78;;;-1.30;99.90;;;;;;5100142;28;20249;-86
2023/12/04 06:04:33;;;;;;;11.68;8.77;;;-1.30;99.90;;;;;;5108129;28;20226;-84
2023/12/04 06:07:19;;;;;;;12.40;8.13;;;-1.30;99.90;;;;;;5104302;28;20219;-85
2023/12/04 06:10:06;;;;;;;11.13;8.15;;;-1.30;99.90;;;;;;5110753;28;20362;-86
2023/12/04 06:12:51;;;;;;;9.60;7.03;;;-1.30;99.90;;;;;;5103033;28;20229;-84
2023/12/04 06:15:37;;;;;;;7.80;6.50;;;-1.30;99.90;;;;;;5106203;28;20228;-84
2023/12/04 06:18:24;;;;;;;10.32;6.55;;;-1.20;99.90;;;;;;5104338;28;20708;-87
2023/12/04 06:21:10;;;;;;;9.85;7.47;;;-1.20;99.90;;;;;;5104626;28;20413;-85
2023/12/04 06:23:57;;;;;;;8.10;6.63;;;-1.10;99.90;;;;;;5105934;28;20210;-85
2023/12/04 06:26:44;;;;;;;10.77;7.80;;;-1.10;99.90;;;;;;5115755;28;20257;-87
2023/12/04 06:29:30;;;;;;;9.93;8.15;;;-1.10;99.90;;;;;;5108706;28;20204;-85
2023/12/04 06:32:16;;;;;;;9.85;7.90;;;-1.00;99.90;;;;;;5111645;28;20237;-84
2023/12/04 06:35:04;;;;;;;7.60;6.50;;;-1.00;99.90;;;;;;5111216;28;20203;-86
2023/12/04 06:37:54;;;;;;;9.15;7.80;;;-0.90;99.90;;;;;;5107081;28;20206;-85
2023/12/04 06:40:40;;;;;;;10.88;8.18;;;-0.80;99.90;;;;;;5098980;28;20205;-84
2023/12/04 06:43:27;;;;;;;11.25;8.48;;;-0.80;99.90;;;;;;5097331;28;20253;-86
2023/12/04 06:46:16;;;;;;;9.75;7.47;;;-0.80;99.90;;;;;;5104441;28;20576;-86
2023/12/04 06:49:03;;;;;;;13.70;8.25;;;-0.70;99.90;;;;;;5111684;28;20210;-85
2023/12/04 06:51:50;;;;;;;11.77;8.35;;;-0.60;99.90;;;;;;5103277;28;20231;-87
2023/12/04 06:54:35;;;;;;;15.85;9.38;;;-0.60;99.90;;;;;;5093757;28;20207;-86
2023/12/04 06:57:21;;;;;;;15.77;11.07;;;-0.70;99.90;;;;;;5105800;28;20208;-87
2023/12/04 07:00:09;;;;;;;14.20;10.25;;;-0.70;99.90;;;;;;5104185;28;20199;-85
2023/12/04 07:02:54;;;;;;;12.32;9.73;;;-0.80;99.90;;;;;;5103879;28;20262;-85
2023/12/04 07:05:40;;;;;;;10.88;8.32;;;-0.90;99.90;;;;;;5097694;28;20264;-85
2023/12/04 07:08:27;;;;;;;11.85;9.00;;;-0.90;99.90;;;;;;5102771;28;20822;-85
2023/12/04 07:11:14;;;;;;;12.10;9.70;;;-0.90;99.90;;;;;;5100312;28;20229;-86
2023/12/04 07:14:00;;;;;;;11.93;10.15;;;-0.90;99.90;;;;;;5110651;28;20203;-86
2023/12/04 07:16:45;;;;;;;11.90;9.75;;;-0.80;99.90;;;;;;5093182;28;20249;-85
2023/12/04 07:19:31;;;;;;;11.15;8.25;;;-0.80;99.90;;;;;;5106371;28;20291;-84
2023/12/04 07:22:17;;;;;;;10.70;8.43;;;-0.80;99.90;;;;;;5106983;22;20247;-75
2023/12/04 07:25:04;;;;;;;34.80;20.30;;;-0.70;99.90;;;;;;5070630;28;20286;-74
2023/12/04 07:27:50;;;;;;;23.38;14.02;;;-0.70;99.90;;;;;;5065462;28;20344;-73
2023/12/04 07:30:35;;;;;;;18.33;11.27;;;-0.60;99.90;;;;;;5064287;28;20418;-74
2023/12/04 07:33:21;;;;;;;11.77;8.07;;;-0.60;99.90;;;;;;5059330;28;20220;-74
2023/12/04 07:36:07;;;;;;;11.07;8.88;;;-0.50;99.90;;;;;;5071005;28;20227;-74
2023/12/04 07:38:53;;;;;;;13.13;9.70;;;-0.40;99.90;;;;;;5065482;28;20255;-74
2023/12/04 07:41:40;;;;;;;11.10;8.75;;;-0.30;99.90;;;;;;5062444;28;20402;-74
2023/12/04 07:44:25;;;;;;;11.32;9.07;;;-0.30;99.90;;;;;;5062654;28;20205;-74
2023/12/04 07:47:11;;;;;;;9.13;7.57;;;-0.20;99.90;;;;;;5070310;28;20218;-74
2023/12/04 07:49:57;;;;;;;11.50;6.85;;;-0.10;99.90;;;;;;5064828;28;20204;-74
2023/12/04 07:52:43;;;;;;;10.20;7.40;;;0.00;99.90;;;;;;5066320;28;20229;-74
2023/12/04 07:55:28;;;;;;;8.75;7.15;;;-0.10;99.90;;;;;;5065158;28;20306;-74
2023/12/04 07:58:15;;;;;;;9.02;7.22;;;0.00;99.90;;;;;;5064949;28;20203;-74
2023/12/04 08:01:01;;;;;;;7.68;6.35;;;0.10;99.90;;;;;;5058451;28;20221;-74
2023/12/04 08:03:46;;;;;;;8.00;6.88;;;0.10;99.90;;;;;;5075606;28;20687;-74
2023/12/04 08:06:33;;;;;;;8.25;7.10;;;0.20;99.90;;;;;;5068726;28;20236;-74
2023/12/04 08:09:18;;;;;;;8.13;6.40;;;0.30;99.90;;;;;;5075378;28;20326;-74
2023/12/04 08:12:04;;;;;;;8.55;6.82;;;0.30;99.90;;;;;;5064920;28;20279;-74
2023/12/04 08:14:51;;;;;;;8.27;6.63;;;0.40;99.90;;;;;;5067990;28;20346;-74
2023/12/04 08:17:37;;;;;;;8.15;5.97;;;0.40;99.90;;;;;;5064967;28;20687;-72
2023/12/04 08:20:23;;;;;;;11.55;6.25;;;0.50;99.90;;;;;;5057444;28;20243;-73
2023/12/04 08:23:08;;;;;;;9.15;6.65;;;0.50;99.90;;;;;;5063077;28;20699;-73
2023/12/04 08:25:54;;;;;;;17.92;10.38;;;0.50;99.90;;;;;;5067145;28;20227;-74
2023/12/04 08:28:41;;;;;;;11.13;6.57;;;0.60;99.90;;;;;;5071826;28;20251;-73
2023/12/04 08:31:28;;;;;;;9.65;6.93;;;0.60;99.90;;;;;;5069376;28;20722;-74
2023/12/04 08:34:13;;;;;;;8.90;5.95;;;0.70;99.90;;;;;;5071093;28;20286;-73
2023/12/04 08:36:59;;;;;;;7.38;6.32;;;0.70;99.90;;;;;;5061128;28;20256;-74
2023/12/04 08:39:45;;;;;;;9.52;7.45;;;0.70;99.90;;;;;;5066185;28;20505;-73
2023/12/04 08:42:30;;;;;;;7.63;6.38;;;0.80;99.90;;;;;;5065214;28;20683;-74
2023/12/04 08:45:16;;;;;;;9.77;5.97;;;0.80;99.90;;;;;;5069600;28;20220;-74
2023/12/04 08:48:03;;;;;;;8.30;7.07;;;0.80;99.90;;;;;;5062816;28;20209;-74
2023/12/04 08:50:49;;;;;;;7.65;5.57;;;1.00;99.90;;;;;;5056048;28;20208;-74
2023/12/04 08:53:35;;;;;;;7.53;6.05;;;1.10;99.90;;;;;;5064595;28;20228;-74
2023/12/04 08:56:20;;;;;;;7.30;5.55;;;1.20;99.90;;;;;;5063110;28;20490;-74
2023/12/04 08:59:06;;;;;;;9.25;5.55;;;1.30;99.90;;;;;;5063319;28;20211;-74
2023/12/04 09:01:52;;;;;;;9.15;6.72;;;1.40;99.90;;;;;;5071110;28;20238;-74
2023/12/04 09:04:39;;;;;;;8.07;5.82;;;1.40;99.90;;;;;;5067090;28;20208;-74
2023/12/04 09:07:24;;;;;;;10.55;5.63;;;1.50;99.90;;;;;;5065586;28;20216;-74
2023/12/04 09:10:10;;;;;;;6.68;5.63;;;1.70;99.90;;;;;;5065154;28;20817;-74
2023/12/04 09:12:56;;;;;;;7.22;5.60;;;1.70;99.90;;;;;;5064859;28;20830;-74
2023/12/04 09:15:41;;;;;;;7.70;4.93;;;1.80;95.10;;;;;;5055741;28;20302;-75
2023/12/04 09:18:27;;;;;;;14.07;6.13;;;1.80;96.10;;;;;;5066714;28;20781;-74
2023/12/04 09:21:14;;;;;;;8.70;6.30;;;1.90;96.10;;;;;;5067814;28;20204;-73
2023/12/04 09:24:00;;;;;;;8.20;5.97;;;1.90;93.60;;;;;;5067781;28;20720;-74
2023/12/04 09:26:45;;;;;;;20.50;15.90;;;2.00;95.10;;;;;;5061756;28;20782;-73
2023/12/04 09:29:31;;;;;;;11.93;10.30;;;2.00;93.60;;;;;;5070667;28;20273;-74
2023/12/04 09:32:17;;;;;;;8.52;7.25;;;2.00;94.50;;;;;;5067235;28;20722;-73
2023/12/04 09:35:03;;;;;;;7.90;5.57;;;2.00;91.10;;;;;;5064207;28;20302;-73
2023/12/04 09:37:50;;;;;;;8.20;6.45;;;2.00;91.80;;;;;;5066476;28;20443;-73
2023/12/04 09:40:36;;;;;;;7.75;5.80;;;2.00;92.90;;;;;;5065355;28;20212;-73
2023/12/04 09:43:21;;;;;;;8.70;5.03;;;2.00;92.80;;;;;;5070318;28;20778;-73
2023/12/04 09:46:08;;;;;;;8.38;6.03;;;2.10;94.50;;;;;;5067460;28;20307;-73
2023/12/04 09:48:55;;;;;;;11.30;5.53;;;2.10;96.60;;;;;;5060240;28;20209;-74
2023/12/04 09:51:40;;;;;;;11.05;6.57;;;2.10;96.60;;;;;;5063948;28;20582;-74
2023/12/04 09:54:28;;;;;;;9.60;6.38;;;2.10;98.40;;;;;;5070461;28;20203;-74
2023/12/04 09:57:14;;;;;;;8.30;5.78;;;2.10;99.90;;;;;;5068127;28;20694;-73
2023/12/04 10:00:02;;;;;;;8.18;5.30;;;2.10;99.90;;;;;;5071970;28;20999;-74
2023/12/04 10:02:48;;;;;;;7.07;4.88;;;2.10;99.90;;;;;;5073866;28;20280;-74
2023/12/04 10:05:33;;;;;;;8.98;5.55;;;2.00;99.90;;;;;;5073858;28;20294;-74
2023/12/04 10:08:19;;;;;;;6.18;4.53;;;2.00;99.90;;;;;;5070684;28;20230;-74
2023/12/04 10:11:06;;;;;;;8.65;5.38;;;2.10;99.90;;;;;;5073841;28;20220;-74
2023/12/04 10:13:52;;;;;;;7.00;5.30;;;2.10;99.90;;;;;;5071703;28;20271;-74
2023/12/04 10:16:38;;;;;;;7.22;5.10;;;2.10;99.90;;;;;;5068021;28;20240;-74
2023/12/04 10:19:26;;;;;;;8.20;5.28;;;2.10;99.90;;;;;;5065703;28;20220;-73
2023/12/04 10:22:14;;;;;;;7.03;5.07;;;2.10;99.90;;;;;;5072436;28;20754;-74
2023/12/04 10:24:59;;;;;;;7.07;5.40;;;2.10;99.90;;;;;;5065934;28;20305;-74
2023/12/04 10:27:46;;;;;;;9.50;6.47;;;2.20;99.90;;;;;;5069052;28;20208;-74
2023/12/04 10:30:33;;;;;;;11.73;6.65;;;2.20;99.90;;;;;;5073308;28;20215;-74
2023/12/04 10:33:18;;;;;;;9.38;6.15;;;2.30;99.90;;;;;;5073114;28;20220;-74
2023/12/04 10:36:04;;;;;;;8.35;6.15;;;2.30;98.10;;;;;;5070607;28;20223;-74
2023/12/04 10:38:59;;;;;;;7.60;5.93;;;2.30;92.30;;;;;;5069529;28;20200;-74
2023/12/04 10:41:45;;;;;;;8.90;6.18;;;2.30;91.80;;;;;;5069246;28;20211;-73
2023/12/04 10:44:33;;;;;;;12.10;5.72;;;2.40;91.00;;;;;;5072146;28;20238;-74
2023/12/04 10:47:21;;;;;;;9.43;5.20;;;2.40;83.90;;;;;;5068242;28;20575;-74
2023/12/04 10:50:07;;;;;;;8.52;6.05;;;2.40;82.80;;;;;;5067315;28;20664;-73
2023/12/04 10:52:54;;;;;;;9.63;7.60;;;2.40;78.00;;;;;;5068745;28;20722;-74
2023/12/04 10:55:40;;;;;;;9.60;6.47;;;2.30;79.80;;;;;;5072535;28;20758;-73
2023/12/04 10:58:27;;;;;;;11.40;8.02;;;2.30;82.50;;;;;;5070345;28;20199;-74
2023/12/04 11:01:16;;;;;;;10.45;7.97;;;2.40;85.90;;;;;;5073163;28;20200;-74
2023/12/04 11:04:06;;;;;;;11.18;7.90;;;2.30;86.70;;;;;;5071310;28;20783;-74
2023/12/04 11:06:55;;;;;;;12.20;8.52;;;2.40;85.90;;;;;;5069640;28;20204;-74
2023/12/04 11:09:41;;;;;;;12.43;7.57;;;2.40;84.20;;;;;;5067825;28;20201;-74
2023/12/04 11:12:32;;;;;;;9.85;7.38;;;2.40;82.40;;;;;;5072315;28;20220;-74
2023/12/04 11:15:21;;;;;;;12.25;8.10;;;2.40;81.90;;;;;;5067733;28;20493;-74
2023/12/04 11:18:10;;;;;;;10.70;8.38;;;2.40;83.80;;;;;;5070909;28;20571;-74
2023/12/04 11:20:59;;;;;;;8.88;6.43;;;2.40;88.40;;;;;;5065111;28;20205;-74
2023/12/04 11:23:45;;;;;;;14.02;8.85;;;2.40;90.90;;;;;;5068682;28;20212;-74
2023/12/04 11:26:31;;;;;;;10.98;8.05;;;2.40;91.50;;;;;;5066717;28;20367;-74
2023/12/04 11:29:18;;;;;;;10.73;8.05;;;2.40;92.80;;;;;;5072236;28;20207;-74
2023/12/04 11:32:06;;;;;;;10.82;7.70;;;2.50;95.20;;;;;;5067554;28;20208;-74
2023/12/04 11:34:56;;;;;;;9.55;7.80;;;2.50;98.90;;;;;;5064354;28;20225;-74
2023/12/04 11:37:43;;;;;;;11.70;8.05;;;2.40;99.90;;;;;;5068120;28;20204;-73
2023/12/04 11:40:29;;;;;;;14.23;8.60;;;2.40;99.90;;;;;;5068477;28;20200;-74
2023/12/04 11:43:27;;;;;;;12.55;7.90;;;2.20;99.90;;;;;;5061474;28;20204;-74
2023/12/04 11:46:13;;;;;;;10.95;7.75;;;2.30;99.90;;;;;;5071377;28;20220;-74
2023/12/04 11:49:28;;;;;;;11.27;7.95;;;2.20;99.90;;;;;;5069110;28;20203;-73
2023/12/04 11:52:15;;;;;;;9.30;7.35;;;2.20;99.90;;;;;;5064195;28;20367;-74
2023/12/04 11:55:05;;;;;;;8.65;6.72;;;2.20;99.90;;;;;;5071100;28;20251;-74
2023/12/04 11:57:51;;;;;;;11.10;7.90;;;2.10;99.90;;;;;;5068013;28;20222;-74
2023/12/04 12:00:37;;;;;;;11.98;7.95;;;2.20;99.90;;;;;;5069788;28;20204;-73
2023/12/04 12:03:23;;;;;;;15.52;7.75;;;2.10;99.90;;;;;;5066812;28;20192;-74
2023/12/04 12:06:09;;;;;;;11.65;7.90;;;2.10;99.90;;;;;;5066124;28;20599;-74
2023/12/04 12:08:57;;;;;;;9.55;8.00;;;2.10;99.90;;;;;;5061595;28;20324;-73
2023/12/04 12:11:43;;;;;;;10.48;8.20;;;2.10;99.90;;;;;;5068795;28;20224;-74
2023/12/04 12:14:29;;;;;;;11.02;8.00;;;2.10;99.90;;;;;;5065073;28;20313;-74
2023/12/04 12:17:15;;;;;;;14.38;7.88;;;2.10;99.90;;;;;;5070849;28;20204;-73
2023/12/04 12:20:03;;;;;;;11.73;8.90;;;2.00;99.90;;;;;;5070917;28;20223;-74
2023/12/04 12:22:49;;;;;;;12.10;8.55;;;2.10;99.90;;;;;;5066114;28;20736;-74
2023/12/04 12:25:37;;;;;;;12.05;8.90;;;2.10;99.90;;;;;;5069932;28;20230;-74
2023/12/04 12:28:23;;;;;;;11.32;9.25;;;2.20;99.90;;;;;;5066867;28;20196;-75
2023/12/04 12:31:09;;;;;;;12.65;9.45;;;2.20;99.90;;;;;;5071313;28;20257;-74
2023/12/04 12:33:56;;;;;;;11.77;8.70;;;2.20;99.90;;;;;;5067576;28;20750;-74
2023/12/04 12:36:42;;;;;;;12.82;8.60;;;2.20;99.90;;;;;;5070561;28;20251;-74
2023/12/04 12:39:28;;;;;;;12.75;8.57;;;2.20;99.90;;;;;;5070801;28;20200;-74
2023/12/04 12:42:22;;;;;;;12.20;9.60;;;2.20;99.90;;;;;;5070967;28;20773;-74
2023/12/04 12:45:11;;;;;;;11.15;8.52;;;2.20;99.90;;;;;;5069741;28;20776;-74
2023/12/04 12:47:57;;;;;;;11.20;8.48;;;2.20;99.90;;;;;;5068233;28;20204;-75
2023/12/04 12:50:43;;;;;;;11.90;9.70;;;2.20;99.90;;;;;;5070287;28;20223;-74
2023/12/04 12:53:29;;;;;;;11.27;8.60;;;2.20;99.90;;;;;;5067310;28;20227;-74
2023/12/04 12:56:15;;;;;;;13.25;9.85;;;2.20;99.90;;;;;;5070827;28;20331;-74
2023/12/04 12:59:03;;;;;;;13.25;9.57;;;2.20;99.90;;;;;;5068747;28;20241;-74
2023/12/04 13:01:49;;;;;;;14.32;10.63;;;2.10;99.90;;;;;;5070580;28;20806;-74
2023/12/04 13:04:38;;;;;;;13.50;9.20;;;2.00;99.90;;;;;;5070965;28;20200;-74
2023/12/04 13:07:23;;;;;;;13.55;9.40;;;2.10;99.90;;;;;;5069195;28;20274;-74
2023/12/04 13:10:10;;;;;;;13.77;9.55;;;2.10;99.90;;;;;;5069706;28;20204;-74
2023/12/04 13:12:57;;;;;;;11.30;8.80;;;2.10;99.90;;;;;;5067306;28;20297;-74
2023/12/04 13:15:44;;;;;;;13.38;9.80;;;2.10;99.90;;;;;;5070314;28;20227;-74
2023/12/04 13:18:31;;;;;;;16.85;12.10;;;2.10;99.90;;;;;;5067086;28;20282;-74
2023/12/04 13:21:17;;;;;;;23.88;15.30;;;2.10;99.90;;;;;;5066844;28;20224;-74
2023/12/04 13:24:06;;;;;;;23.58;14.35;;;2.10;99.90;;;;;;5068661;28;20628;-74
2023/12/04 13:26:52;;;;;;;20.08;12.02;;;2.10;99.90;;;;;;5067932;28;20248;-74
2023/12/04 13:29:38;;;;;;;18.23;12.45;;;2.10;99.90;;;;;;5070456;28;20247;-75
2023/12/04 13:32:25;;;;;;;14.05;9.90;;;2.10;99.90;;;;;;5070690;28;20206;-76
2023/12/04 13:35:11;;;;;;;13.95;10.23;;;2.20;99.90;;;;;;5069748;28;20228;-76
2023/12/04 13:37:59;;;;;;;11.75;9.50;;;2.10;99.90;;;;;;5068205;28;20652;-76
2023/12/04 13:40:59;;;;;;;14.23;10.43;;;2.20;99.90;;;;;;5070361;28;20601;-76
2023/12/04 13:43:52;;;;;;;10.45;8.98;;;2.20;99.90;;;;;;5066397;28;20219;-75
2023/12/04 13:46:38;;;;;;;13.25;8.95;;;2.30;99.90;;;;;;5070252;28;20232;-75
2023/12/04 13:49:25;;;;;;;18.00;9.75;;;2.30;99.90;;;;;;5069931;28;20698;-76
2023/12/04 13:52:11;;;;;;;12.63;9.30;;;2.30;99.90;;;;;;5069681;28;20209;-75
2023/12/04 13:54:57;;;;;;;19.73;10.00;;;2.30;99.90;;;;;;5067548;28;20786;-75
2023/12/04 13:57:56;;;;;;;11.25;8.50;;;2.40;99.90;;;;;;5069954;28;20642;-76
2023/12/04 14:00:43;;;;;;;12.73;8.55;;;2.40;99.90;;;;;;5066216;28;20729;-76
2023/12/04 14:03:29;;;;;;;10.73;8.57;;;2.40;99.90;;;;;;5066820;28;20201;-75
2023/12/04 14:06:16;;;;;;;11.93;8.05;;;2.40;99.90;;;;;;5068818;28;20230;-75
2023/12/04 14:09:04;;;;;;;10.48;8.32;;;2.40;99.90;;;;;;5068044;28;20212;-76
2023/12/04 14:11:49;;;;;;;10.90;7.80;;;2.40;99.90;;;;;;5069986;28;20291;-76
2023/12/04 14:14:35;;;;;;;10.45;7.72;;;2.40;99.90;;;;;;5066928;28;20858;-75
2023/12/04 14:17:21;;;;;;;10.07;8.05;;;2.40;99.90;;;;;;5066069;28;20582;-76
2023/12/04 14:20:12;;;;;;;10.88;8.50;;;2.40;99.90;;;;;;5068197;28;20203;-76